createdAt,value
2022-07-28T00:03:44.580Z,49
2022-07-28T00:18:44.515Z,50
2022-07-28T00:33:44.528Z,50
2022-07-28T00:48:44.534Z,51
2022-07-28T01:03:44.481Z,51
2022-07-28T01:18:44.546Z,52
2022-07-28T01:33:44.416Z,52
2022-07-28T01:48:44.390Z,54
2022-07-28T02:03:44.377Z,54
2022-07-28T02:18:44.304Z,54
2022-07-28T02:34:00.129Z,55
2022-07-28T02:48:44.309Z,56
2022-07-28T03:03:44.317Z,57
2022-07-28T03:18:44.206Z,57
2022-07-28T03:33:44.184Z,58
2022-07-28T03:48:44.183Z,58
2022-07-28T04:03:44.506Z,58
2022-07-28T04:18:44.109Z,58
2022-07-28T04:33:44.103Z,59
2022-07-28T04:48:44.129Z,59
2022-07-28T05:03:44.058Z,58
2022-07-28T05:18:43.988Z,55
2022-07-28T05:33:44.001Z,52
2022-07-28T05:48:43.967Z,50
2022-07-28T06:03:44.111Z,48
2022-07-28T06:18:43.891Z,46
2022-07-28T06:33:43.894Z,44
2022-07-28T06:48:43.888Z,42
2022-07-28T07:03:43.947Z,40
2022-07-28T07:18:43.774Z,39
2022-07-28T07:33:43.776Z,38
2022-07-28T07:48:43.757Z,35
2022-07-28T08:03:43.736Z,36
2022-07-28T08:18:43.671Z,37
2022-07-28T08:33:54.397Z,36
2022-07-28T09:18:43.605Z,36
2022-07-28T09:33:44.030Z,35
2022-07-28T09:48:43.676Z,38
2022-07-28T10:03:43.502Z,37
2022-07-28T10:18:43.451Z,36
2022-07-28T10:33:43.457Z,36
2022-07-28T10:48:43.643Z,34
2022-07-28T11:03:43.619Z,34
2022-07-28T11:18:43.333Z,35
2022-07-28T11:33:46.951Z,34
2022-07-28T11:48:43.350Z,34
2022-07-28T12:03:50.323Z,35
2022-07-28T12:18:43.257Z,34
2022-07-28T12:33:43.233Z,34
2022-07-28T12:48:43.295Z,34
2022-07-28T13:03:43.173Z,33
2022-07-28T13:18:43.163Z,32
2022-07-28T13:33:43.134Z,33
2022-07-28T13:48:59.954Z,32
2022-07-28T14:03:54.854Z,32
2022-07-28T14:18:43.020Z,32
2022-07-28T14:33:47.295Z,31
2022-07-28T14:48:43.084Z,31
2022-07-28T15:03:43.450Z,31
2022-07-28T15:18:42.897Z,32
2022-07-28T15:33:48.427Z,32
2022-07-28T15:48:42.924Z,32
2022-07-28T16:03:42.848Z,32
2022-07-28T16:18:42.794Z,31
2022-07-28T16:33:42.767Z,32
2022-07-28T16:48:42.830Z,31
2022-07-28T17:03:42.703Z,31
2022-07-28T17:18:42.682Z,31
2022-07-28T17:33:42.671Z,32
2022-07-28T17:48:42.689Z,34
2022-07-28T18:03:56.557Z,35
2022-07-28T18:18:42.587Z,35
2022-07-28T18:33:42.588Z,36
2022-07-28T18:48:42.583Z,37
2022-07-28T19:03:42.525Z,38
2022-07-28T19:18:42.471Z,38
2022-07-28T19:33:43.754Z,39
2022-07-28T19:48:42.464Z,39
2022-07-28T20:04:01.309Z,39
2022-07-28T20:18:42.346Z,39
2022-07-28T20:33:42.357Z,38
2022-07-28T20:48:42.344Z,38
2022-07-28T21:03:45.326Z,38
2022-07-28T21:18:42.237Z,39
2022-07-28T21:33:42.261Z,40
2022-07-28T21:48:42.240Z,41
2022-07-28T22:03:42.182Z,41
2022-07-28T22:18:42.121Z,41
2022-07-28T22:33:42.134Z,41
2022-07-28T22:48:42.151Z,43
2022-07-28T23:03:42.189Z,44
2022-07-28T23:18:42.006Z,44
2022-07-28T23:33:55.316Z,44
2022-07-28T23:48:41.993Z,44
